Terminal Aerodrome Forecast
Issued by NWS Goodland, KS

Home | Current Version | Previous Version | Text Only | Print | Product List | Glossary On
Versions: 1 2 3 4 5 6 7 8 9 10 11 12 13 14 15
000
FTUS43 KGLD 020917 AAC
TAFGLD
TAF AMD
KGLD 020917Z 0209/0306 11012KT P6SM FEW025 BKN150
     FM021100 17011KT P6SM SCT250
     FM022000 16013G24KT P6SM SCT030 BKN200
     FM030200 19007KT P6SM SCT110=

USA.gov is the U.S. government's official web portal to all federal, state and local government web resources and services.